createdAt,value
2019-02-02T00:00:09.158Z,2.90
2019-02-02T00:02:43.853Z,2.90
2019-02-02T00:05:16.888Z,2.90
2019-02-02T00:07:49.963Z,2.90
2019-02-02T00:10:22.898Z,2.90
2019-02-02T00:12:56.078Z,2.90
2019-02-02T00:15:29.097Z,2.90
2019-02-02T00:18:01.888Z,2.90
2019-02-02T00:20:34.832Z,2.80
2019-02-02T00:23:07.686Z,2.80
2019-02-02T00:25:40.647Z,2.80
2019-02-02T00:28:13.692Z,2.90
2019-02-02T00:30:46.594Z,2.80
2019-02-02T00:33:19.464Z,2.80
2019-02-02T00:35:52.269Z,2.80
2019-02-02T00:38:25.185Z,2.80
2019-02-02T00:40:58.032Z,2.80
2019-02-02T00:43:30.855Z,2.60
2019-02-02T00:46:03.917Z,2.60
2019-02-02T00:48:36.695Z,2.60
2019-02-02T00:51:09.612Z,2.60
2019-02-02T00:53:42.502Z,2.60
2019-02-02T00:56:15.509Z,2.50
2019-02-02T00:58:48.498Z,2.50
2019-02-02T01:01:21.298Z,2.50
2019-02-02T01:03:55.153Z,2.40
2019-02-02T01:06:28.080Z,2.40
2019-02-02T01:09:01.050Z,2.40
2019-02-02T01:11:35.774Z,2.50
2019-02-02T01:14:08.608Z,2.50
2019-02-02T01:16:41.358Z,2.50
2019-02-02T01:19:14.438Z,2.50
2019-02-02T01:21:47.474Z,2.50
2019-02-02T01:24:20.283Z,2.40
2019-02-02T01:26:53.198Z,2.50
2019-02-02T01:29:25.946Z,2.30
2019-02-02T01:31:59.006Z,2.40
2019-02-02T01:34:31.851Z,2.30
2019-02-02T01:37:04.835Z,2.40
2019-02-02T01:39:37.689Z,2.40
2019-02-02T01:42:10.573Z,2.50
2019-02-02T01:44:43.435Z,2.40
2019-02-02T01:47:16.394Z,2.40
2019-02-02T01:49:49.254Z,2.50
2019-02-02T01:52:22.165Z,2.40
2019-02-02T01:54:55.118Z,2.50
2019-02-02T01:57:27.855Z,2.60
2019-02-02T02:00:00.782Z,2.60
2019-02-02T02:02:33.501Z,2.60
2019-02-02T02:05:06.259Z,2.50
2019-02-02T02:07:39.495Z,2.60
2019-02-02T02:10:13.241Z,2.60
2019-02-02T02:12:45.989Z,2.70
2019-02-02T02:15:18.894Z,2.70
2019-02-02T02:17:51.795Z,2.70
2019-02-02T02:20:24.604Z,2.60
2019-02-02T02:22:57.529Z,2.70
2019-02-02T02:25:30.259Z,2.60
2019-02-02T02:28:02.984Z,2.60
2019-02-02T02:30:35.980Z,2.60
2019-02-02T02:33:08.954Z,2.60
2019-02-02T02:35:41.965Z,2.60
2019-02-02T02:38:14.929Z,2.60
2019-02-02T02:40:47.980Z,2.60
2019-02-02T02:43:20.835Z,2.60
2019-02-02T02:45:53.661Z,2.60
2019-02-02T02:48:26.649Z,2.60
2019-02-02T02:50:59.395Z,2.60
2019-02-02T02:53:32.315Z,2.60
2019-02-02T02:56:05.209Z,2.70
2019-02-02T02:58:41.642Z,2.70
2019-02-02T03:01:12.783Z,2.70
2019-02-02T03:03:45.658Z,2.60
2019-02-02T03:06:18.562Z,2.60
2019-02-02T03:08:51.475Z,2.70
2019-02-02T03:11:24.457Z,2.70
2019-02-02T03:13:57.369Z,2.70
2019-02-02T03:16:30.248Z,2.70
2019-02-02T03:19:03.226Z,2.70
2019-02-02T03:21:36.061Z,2.70
2019-02-02T03:24:08.829Z,2.70
2019-02-02T03:26:41.585Z,2.70
2019-02-02T03:29:14.514Z,2.70
2019-02-02T03:31:48.672Z,2.70
2019-02-02T03:34:21.816Z,2.70
2019-02-02T03:36:54.922Z,2.70
2019-02-02T03:39:27.704Z,2.70
2019-02-02T03:42:00.535Z,2.70
2019-02-02T03:44:33.470Z,2.70
2019-02-02T03:47:06.392Z,2.70
2019-02-02T03:49:39.201Z,2.70
2019-02-02T03:52:11.916Z,2.70
2019-02-02T03:54:45.001Z,2.60
2019-02-02T03:57:17.789Z,2.60
2019-02-02T03:59:50.651Z,2.60
2019-02-02T04:02:23.469Z,2.60
2019-02-02T04:04:56.320Z,2.60
2019-02-02T04:07:29.401Z,2.60
2019-02-02T04:10:02.630Z,2.60
2019-02-02T04:12:35.745Z,2.60
2019-02-02T04:15:09.197Z,2.70
2019-02-02T04:17:41.987Z,2.70
2019-02-02T04:20:19.208Z,2.60
2019-02-02T04:22:52.207Z,2.60
2019-02-02T04:25:25.128Z,2.60
2019-02-02T04:27:57.925Z,2.50
2019-02-02T04:30:30.769Z,2.60
2019-02-02T04:33:03.863Z,2.60
2019-02-02T04:35:36.902Z,2.60
2019-02-02T04:38:09.789Z,2.50
2019-02-02T04:40:42.645Z,2.50
2019-02-02T04:43:15.417Z,2.50
2019-02-02T04:45:48.212Z,2.60
2019-02-02T04:48:21.091Z,2.50
2019-02-02T04:50:53.922Z,2.60
2019-02-02T04:53:26.696Z,2.60
2019-02-02T04:55:59.573Z,2.60
2019-02-02T04:58:32.806Z,2.60
2019-02-02T05:01:05.888Z,2.60
2019-02-02T05:03:38.837Z,2.50
2019-02-02T05:06:11.743Z,2.50
2019-02-02T05:08:44.758Z,2.50
2019-02-02T05:11:17.568Z,2.50
2019-02-02T05:13:50.486Z,2.50
2019-02-02T05:16:23.563Z,2.60
2019-02-02T05:18:56.553Z,2.60
2019-02-02T05:21:29.411Z,2.60
2019-02-02T05:24:03.142Z,2.60
2019-02-02T05:26:36.107Z,2.60
2019-02-02T05:29:08.926Z,2.70
2019-02-02T05:31:41.652Z,2.70
2019-02-02T05:34:14.552Z,2.70
2019-02-02T05:36:47.682Z,2.70
2019-02-02T05:39:20.746Z,2.80
2019-02-02T05:41:53.760Z,2.80
2019-02-02T05:44:26.697Z,2.80
2019-02-02T05:46:59.458Z,2.80
2019-02-02T05:49:33.446Z,2.70
2019-02-02T05:52:06.224Z,2.70
2019-02-02T05:54:38.983Z,2.80
2019-02-02T05:57:11.893Z,2.70
2019-02-02T05:59:52.438Z,2.70
2019-02-02T06:02:19.873Z,2.70
2019-02-02T06:04:52.837Z,2.60
2019-02-02T06:07:25.858Z,2.60
2019-02-02T06:09:58.870Z,2.60
2019-02-02T06:12:31.582Z,2.60
2019-02-02T06:15:05.333Z,2.60
2019-02-02T06:17:38.095Z,2.60
2019-02-02T06:20:11.397Z,2.70
2019-02-02T06:22:44.248Z,2.60
2019-02-02T06:25:17.160Z,2.70
2019-02-02T06:27:50.002Z,2.60
2019-02-02T06:30:23.238Z,2.60
2019-02-02T06:32:56.310Z,2.60
2019-02-02T06:35:29.313Z,2.60
2019-02-02T06:38:02.381Z,2.60
2019-02-02T06:40:35.325Z,2.60
2019-02-02T06:43:08.335Z,2.70
2019-02-02T06:45:41.288Z,2.60
2019-02-02T06:48:14.187Z,2.60
2019-02-02T06:50:46.971Z,2.60
2019-02-02T06:53:20.020Z,2.60
2019-02-02T06:55:52.877Z,2.70
2019-02-02T06:58:25.720Z,2.70
2019-02-02T07:00:58.694Z,2.70
2019-02-02T07:03:31.660Z,2.70
2019-02-02T07:06:04.954Z,2.70
2019-02-02T07:08:37.769Z,2.70
2019-02-02T07:11:10.857Z,2.80
2019-02-02T07:13:43.625Z,2.70
2019-02-02T07:16:16.563Z,2.70
2019-02-02T07:18:49.314Z,2.80
2019-02-02T07:21:23.199Z,2.70
2019-02-02T07:23:56.233Z,2.60
2019-02-02T07:26:29.068Z,2.60
2019-02-02T07:29:01.943Z,2.70
2019-02-02T07:31:35.005Z,2.70
2019-02-02T07:34:07.919Z,2.70
2019-02-02T07:36:40.732Z,2.80
2019-02-02T07:39:13.805Z,2.80
2019-02-02T07:41:46.865Z,2.80
2019-02-02T07:44:19.953Z,2.80
2019-02-02T07:46:52.764Z,2.80
2019-02-02T07:49:25.498Z,2.70
2019-02-02T07:51:58.318Z,2.80
2019-02-02T07:54:33.048Z,2.80
2019-02-02T07:57:05.921Z,2.80
2019-02-02T07:59:38.655Z,2.80
2019-02-02T08:02:11.550Z,2.80
2019-02-02T08:04:44.518Z,2.70
2019-02-02T08:07:18.349Z,2.70
2019-02-02T08:09:51.293Z,2.70
2019-02-02T08:12:24.381Z,2.80
2019-02-02T08:14:57.469Z,2.70
2019-02-02T08:17:32.414Z,2.70
2019-02-02T08:20:06.934Z,2.80
2019-02-02T08:22:39.735Z,2.80
2019-02-02T08:25:13.210Z,2.70
2019-02-02T08:27:46.311Z,2.90
2019-02-02T08:30:21.154Z,2.90
2019-02-02T08:32:54.205Z,3.00
2019-02-02T08:35:27.288Z,3.10
2019-02-02T08:38:00.384Z,3.00
2019-02-02T08:40:33.344Z,3.10
2019-02-02T08:43:06.319Z,3.00
2019-02-02T08:45:39.239Z,3.00
2019-02-02T08:48:12.310Z,3.10
2019-02-02T08:50:45.191Z,3.10
2019-02-02T08:53:18.197Z,3.30
2019-02-02T08:55:51.995Z,3.30
2019-02-02T08:58:25.461Z,3.30
2019-02-02T09:01:04.332Z,3.20
2019-02-02T09:03:33.487Z,3.20
2019-02-02T09:06:07.422Z,3.20
2019-02-02T09:08:40.361Z,3.20
2019-02-02T09:11:13.331Z,3.30
2019-02-02T09:13:46.663Z,3.40
2019-02-02T09:16:19.620Z,3.30
2019-02-02T09:18:52.572Z,3.40
2019-02-02T09:21:25.395Z,3.20
2019-02-02T09:23:58.531Z,3.20
2019-02-02T09:26:31.441Z,3.20
2019-02-02T09:29:04.281Z,3.30
2019-02-02T09:31:37.356Z,3.30
2019-02-02T09:34:10.401Z,3.30
2019-02-02T09:36:43.190Z,3.40
2019-02-02T09:39:16.031Z,3.40
2019-02-02T09:41:48.887Z,3.30
2019-02-02T09:44:21.863Z,3.40
2019-02-02T09:46:54.968Z,3.40
2019-02-02T09:49:28.025Z,3.40
2019-02-02T09:52:00.814Z,3.50
2019-02-02T09:54:33.769Z,3.50
2019-02-02T09:57:06.925Z,3.60
2019-02-02T09:59:39.736Z,3.60
2019-02-02T10:02:12.531Z,3.60
2019-02-02T10:04:45.467Z,3.60
2019-02-02T10:07:18.401Z,3.70
2019-02-02T10:09:51.326Z,3.70
2019-02-02T10:12:24.161Z,3.70
2019-02-02T10:14:57.065Z,3.70
2019-02-02T10:17:30.111Z,3.70
2019-02-02T10:20:03.917Z,3.70
2019-02-02T10:22:36.992Z,3.80
2019-02-02T10:25:11.286Z,3.70
2019-02-02T10:27:44.383Z,3.80
2019-02-02T10:30:22.837Z,3.80
2019-02-02T10:32:55.922Z,3.80
2019-02-02T10:35:28.806Z,3.80
2019-02-02T10:38:01.810Z,3.80
2019-02-02T10:40:34.721Z,3.90
2019-02-02T10:43:08.094Z,4.00
2019-02-02T10:45:41.211Z,4.10
2019-02-02T10:48:14.126Z,4.10
2019-02-02T10:50:47.189Z,4.30
2019-02-02T10:53:20.237Z,4.20
2019-02-02T10:55:52.977Z,4.10
2019-02-02T10:58:25.749Z,4.20
2019-02-02T11:00:58.809Z,4.20
2019-02-02T11:03:31.943Z,4.20
2019-02-02T11:06:05.124Z,4.30
2019-02-02T11:08:38.193Z,4.30
2019-02-02T11:11:11.088Z,4.20
2019-02-02T11:13:44.164Z,4.30
2019-02-02T11:16:17.111Z,4.20
2019-02-02T11:18:49.959Z,4.20
2019-02-02T11:21:23.083Z,4.10
2019-02-02T11:23:56.121Z,4.10
2019-02-02T11:26:29.053Z,4.10
2019-02-02T11:29:02.222Z,4.10
2019-02-02T11:31:35.270Z,4.10
2019-02-02T11:34:08.187Z,4.10
2019-02-02T11:36:43.804Z,4.10
2019-02-02T11:39:16.041Z,4.10
2019-02-02T11:41:48.974Z,4.10
2019-02-02T11:44:21.762Z,4.20
2019-02-02T11:46:54.650Z,4.20
2019-02-02T11:49:27.527Z,4.20
2019-02-02T11:52:01.332Z,4.30
2019-02-02T11:54:34.388Z,4.30
2019-02-02T11:57:07.340Z,4.20
2019-02-02T11:59:40.417Z,4.10
2019-02-02T12:02:14.909Z,4.30
2019-02-02T12:04:47.999Z,4.20
2019-02-02T12:07:21.154Z,4.10
2019-02-02T12:09:53.958Z,4.10
2019-02-02T12:12:27.037Z,4.10
2019-02-02T12:14:59.815Z,4.10
2019-02-02T12:17:32.677Z,4.00
2019-02-02T12:20:06.909Z,4.10
2019-02-02T12:22:39.993Z,4.10
2019-02-02T12:25:13.970Z,4.00
2019-02-02T12:27:47.215Z,4.10
2019-02-02T12:30:28.223Z,4.10
2019-02-02T12:33:03.391Z,4.10
2019-02-02T12:35:35.708Z,4.00
2019-02-02T12:38:08.975Z,4.10
2019-02-02T12:40:41.788Z,4.10
2019-02-02T12:43:14.907Z,4.20
2019-02-02T12:45:50.494Z,4.00
2019-02-02T12:48:23.414Z,3.90
2019-02-02T12:50:56.515Z,3.90
2019-02-02T12:53:29.687Z,3.90
2019-02-02T12:56:02.814Z,3.90
2019-02-02T12:58:35.941Z,4.00
2019-02-02T13:01:08.796Z,3.90
2019-02-02T13:03:41.552Z,3.90
2019-02-02T13:06:14.556Z,4.00
2019-02-02T13:08:47.763Z,4.10
2019-02-02T13:11:20.637Z,4.10
2019-02-02T13:13:53.418Z,4.20
2019-02-02T13:16:26.235Z,4.20
2019-02-02T13:18:59.525Z,4.30
2019-02-02T13:21:32.267Z,4.20
2019-02-02T13:24:05.339Z,4.10
2019-02-02T13:26:38.425Z,4.20
2019-02-02T13:29:11.689Z,4.30
2019-02-02T13:31:44.671Z,4.30
2019-02-02T13:34:17.792Z,4.30
2019-02-02T13:36:50.781Z,4.30
2019-02-02T13:39:23.888Z,4.40
2019-02-02T13:41:56.965Z,4.40
2019-02-02T13:44:30.139Z,4.30
2019-02-02T13:47:03.040Z,4.30
2019-02-02T13:49:35.899Z,4.20
2019-02-02T13:52:08.840Z,4.20
2019-02-02T13:54:41.824Z,4.20
2019-02-02T13:57:14.948Z,4.10
2019-02-02T13:59:47.950Z,4.20
2019-02-02T14:02:20.730Z,4.20
2019-02-02T14:04:53.745Z,4.20
2019-02-02T14:07:26.755Z,4.20
2019-02-02T14:09:59.634Z,4.20
2019-02-02T14:12:32.574Z,4.20
2019-02-02T14:15:06.371Z,4.20
2019-02-02T14:17:39.348Z,4.20
2019-02-02T14:20:12.468Z,4.20
2019-02-02T14:22:45.510Z,4.10
2019-02-02T14:25:18.380Z,4.20
2019-02-02T14:27:51.382Z,4.10
2019-02-02T14:30:24.957Z,4.10
2019-02-02T14:32:57.708Z,4.00
2019-02-02T14:35:30.796Z,4.10
2019-02-02T14:38:03.797Z,3.90
2019-02-02T14:40:36.875Z,3.80
2019-02-02T14:43:09.817Z,3.90
2019-02-02T14:45:43.064Z,4.00
2019-02-02T14:48:16.045Z,3.90
2019-02-02T14:50:49.037Z,3.90
2019-02-02T14:53:22.062Z,3.80
2019-02-02T14:55:55.026Z,3.70
2019-02-02T14:58:28.330Z,3.80
2019-02-02T15:01:01.271Z,3.70
2019-02-02T15:03:34.592Z,3.60
2019-02-02T15:06:09.606Z,3.70
2019-02-02T15:08:42.587Z,3.60
2019-02-02T15:11:15.594Z,3.60
2019-02-02T15:13:48.544Z,3.50
2019-02-02T15:16:21.456Z,3.50
2019-02-02T15:18:54.298Z,3.60
2019-02-02T15:21:27.355Z,3.50
2019-02-02T15:24:00.097Z,3.50
2019-02-02T15:26:33.064Z,3.40
2019-02-02T15:29:06.047Z,3.40
2019-02-02T15:31:39.022Z,3.40
2019-02-02T15:34:11.811Z,3.40
2019-02-02T15:36:44.752Z,3.30
2019-02-02T15:39:17.628Z,3.40
2019-02-02T15:41:53.018Z,3.20
2019-02-02T15:44:25.348Z,3.00
2019-02-02T15:46:58.216Z,3.10
2019-02-02T15:49:31.362Z,3.10
2019-02-02T15:52:04.223Z,3.20
2019-02-02T15:54:37.187Z,3.10
2019-02-02T15:57:11.007Z,3.10
2019-02-02T15:59:43.807Z,3.10
2019-02-02T16:02:16.869Z,3.10
2019-02-02T16:04:49.779Z,3.00
2019-02-02T16:07:22.710Z,3.00
2019-02-02T16:09:55.606Z,3.00
2019-02-02T16:12:28.749Z,2.90
2019-02-02T16:15:01.642Z,3.00
2019-02-02T16:17:34.890Z,2.90
2019-02-02T16:20:11.652Z,2.80
2019-02-02T16:22:44.413Z,2.80
2019-02-02T16:25:17.604Z,2.80
2019-02-02T16:27:50.437Z,2.80
2019-02-02T16:30:24.583Z,2.90
2019-02-02T16:32:57.603Z,2.80
2019-02-02T16:35:30.486Z,2.90
2019-02-02T16:38:03.411Z,2.90
2019-02-02T16:40:36.281Z,3.00
2019-02-02T16:43:09.161Z,3.00
2019-02-02T16:45:42.221Z,3.10
2019-02-02T16:48:15.243Z,3.10
2019-02-02T16:50:48.261Z,3.10
2019-02-02T16:53:21.855Z,3.00
2019-02-02T16:55:55.066Z,2.90
2019-02-02T16:58:27.952Z,2.80
2019-02-02T17:01:00.970Z,2.80
2019-02-02T17:03:34.060Z,2.70
2019-02-02T17:06:06.939Z,2.70
2019-02-02T17:08:40.011Z,2.70
2019-02-02T17:11:13.054Z,2.70
2019-02-02T17:13:45.930Z,2.70
2019-02-02T17:16:18.902Z,2.70
2019-02-02T17:18:51.845Z,2.70
2019-02-02T17:21:24.652Z,2.80
2019-02-02T17:23:57.596Z,2.70
2019-02-02T17:26:30.597Z,2.80
2019-02-02T17:29:03.692Z,2.70
2019-02-02T17:31:36.867Z,2.70
2019-02-02T17:34:10.002Z,2.70
2019-02-02T17:36:42.864Z,2.60
2019-02-02T17:39:15.793Z,2.60
2019-02-02T17:41:48.578Z,2.60
2019-02-02T17:44:21.467Z,2.60
2019-02-02T17:46:54.283Z,2.60
2019-02-02T17:49:27.358Z,2.60
2019-02-02T17:52:00.229Z,2.60
2019-02-02T17:54:33.185Z,2.60
2019-02-02T17:57:07.657Z,2.50
2019-02-02T17:59:40.434Z,2.50
2019-02-02T18:02:13.217Z,2.50
2019-02-02T18:04:46.137Z,2.50
2019-02-02T18:07:19.052Z,2.50
2019-02-02T18:09:51.814Z,2.50
2019-02-02T18:12:24.673Z,2.50
2019-02-02T18:14:57.709Z,2.40
2019-02-02T18:17:30.534Z,2.40
2019-02-02T18:20:04.823Z,2.40
2019-02-02T18:22:37.833Z,2.40
2019-02-02T18:25:11.928Z,2.40
2019-02-02T18:27:45.815Z,2.40
2019-02-02T18:30:19.383Z,2.40
2019-02-02T18:32:52.307Z,2.40
2019-02-02T18:35:25.442Z,2.40
2019-02-02T18:37:58.219Z,2.40
2019-02-02T18:40:31.143Z,2.40
2019-02-02T18:43:04.216Z,2.40
2019-02-02T18:45:37.041Z,2.20
2019-02-02T18:48:09.857Z,2.30
2019-02-02T18:50:42.902Z,2.20
2019-02-02T18:53:15.913Z,2.30
2019-02-02T18:55:55.703Z,2.30
2019-02-02T18:58:28.809Z,2.20
2019-02-02T19:01:01.903Z,2.20
2019-02-02T19:03:36.115Z,2.30
2019-02-02T19:06:09.164Z,2.40
2019-02-02T19:08:42.188Z,2.30
2019-02-02T19:11:15.045Z,2.30
2019-02-02T19:13:48.107Z,2.20
2019-02-02T19:16:20.863Z,2.10
2019-02-02T19:18:53.791Z,2.10
2019-02-02T19:21:26.691Z,2.00
2019-02-02T19:23:59.950Z,2.10
2019-02-02T19:26:32.898Z,2.10
2019-02-02T19:29:05.853Z,2.00
2019-02-02T19:31:38.879Z,2.00
2019-02-02T19:34:11.960Z,2.00
2019-02-02T19:36:44.799Z,2.00
2019-02-02T19:39:17.698Z,2.10
2019-02-02T19:41:50.669Z,2.00
2019-02-02T19:44:23.522Z,2.00
2019-02-02T19:46:56.564Z,1.90
2019-02-02T19:49:29.500Z,1.90
2019-02-02T19:52:02.646Z,1.90
2019-02-02T19:54:35.670Z,2.00
2019-02-02T19:57:08.905Z,1.90
2019-02-02T19:59:41.824Z,1.90
2019-02-02T20:02:14.840Z,1.90
2019-02-02T20:04:47.761Z,1.90
2019-02-02T20:07:20.691Z,2.00
2019-02-02T20:09:53.734Z,1.90
2019-02-02T20:12:26.666Z,1.80
2019-02-02T20:14:59.745Z,1.80
2019-02-02T20:17:32.687Z,1.90
2019-02-02T20:20:08.334Z,1.90
2019-02-02T20:22:41.294Z,1.90
2019-02-02T20:25:14.196Z,1.90
2019-02-02T20:27:47.043Z,1.90
2019-02-02T20:30:22.020Z,1.90
2019-02-02T20:32:54.785Z,1.80
2019-02-02T20:35:39.810Z,1.90
2019-02-02T20:38:02.497Z,1.90
2019-02-02T20:40:35.362Z,1.80
2019-02-02T20:43:08.201Z,1.90
2019-02-02T20:45:41.245Z,1.90
2019-02-02T20:48:14.187Z,1.90
2019-02-02T20:50:47.059Z,1.80
2019-02-02T20:53:20.657Z,1.70
2019-02-02T20:55:53.706Z,1.70
2019-02-02T20:58:26.560Z,1.70
2019-02-02T21:00:59.333Z,1.70
2019-02-02T21:03:32.167Z,1.80
2019-02-02T21:06:05.075Z,1.80
2019-02-02T21:08:38.395Z,1.80
2019-02-02T21:11:11.335Z,1.90
2019-02-02T21:13:44.146Z,1.90
2019-02-02T21:16:17.402Z,1.90
2019-02-02T21:18:50.390Z,1.90
2019-02-02T21:21:23.561Z,1.80
2019-02-02T21:23:56.437Z,1.80
2019-02-02T21:26:29.403Z,1.80
2019-02-02T21:29:02.198Z,1.80
2019-02-02T21:31:35.088Z,1.80
2019-02-02T21:34:09.105Z,1.80
2019-02-02T21:36:42.032Z,1.80
2019-02-02T21:39:15.010Z,1.90
2019-02-02T21:41:47.993Z,1.90
2019-02-02T21:44:20.911Z,1.90
2019-02-02T21:46:53.917Z,1.80
2019-02-02T21:49:26.996Z,1.80
2019-02-02T21:51:59.922Z,1.90
2019-02-02T21:54:33.032Z,1.90
2019-02-02T21:57:06.796Z,1.80
2019-02-02T21:59:39.622Z,1.90
2019-02-02T22:02:12.712Z,1.80
2019-02-02T22:04:45.478Z,1.90
2019-02-02T22:07:18.876Z,1.80
2019-02-02T22:09:51.938Z,1.80
2019-02-02T22:12:24.937Z,1.80
2019-02-02T22:14:57.937Z,1.80
2019-02-02T22:17:31.356Z,1.80
2019-02-02T22:20:05.376Z,1.80
2019-02-02T22:22:38.367Z,1.80
2019-02-02T22:25:13.952Z,1.80
2019-02-02T22:27:47.233Z,1.80
2019-02-02T22:30:22.297Z,1.80
2019-02-02T22:32:55.433Z,1.80
2019-02-02T22:35:28.303Z,1.80
2019-02-02T22:38:01.676Z,1.80
2019-02-02T22:40:34.817Z,1.80
2019-02-02T22:43:07.708Z,1.80
2019-02-02T22:45:40.599Z,1.80
2019-02-02T22:48:13.674Z,1.80
2019-02-02T22:50:46.546Z,1.90
2019-02-02T22:53:19.622Z,1.90
2019-02-02T22:55:52.794Z,1.90
2019-02-02T22:58:25.633Z,1.90
2019-02-02T23:01:12.198Z,1.90
2019-02-02T23:03:49.063Z,1.90
2019-02-02T23:07:04.092Z,1.80
2019-02-02T23:10:33.627Z,1.90
2019-02-02T23:13:43.939Z,1.90
2019-02-02T23:16:29.905Z,1.90
2019-02-02T23:19:03.148Z,1.80
2019-02-02T23:21:35.963Z,1.90
2019-02-02T23:24:08.988Z,1.80
2019-02-02T23:26:41.818Z,1.80
2019-02-02T23:29:14.737Z,1.80
2019-02-02T23:31:47.524Z,1.70
2019-02-02T23:34:20.980Z,1.80
2019-02-02T23:36:55.883Z,1.70
2019-02-02T23:39:28.818Z,1.70
2019-02-02T23:42:01.528Z,1.70
2019-02-02T23:44:34.592Z,1.70
2019-02-02T23:47:07.579Z,1.60
2019-02-02T23:49:41.281Z,1.60
2019-02-02T23:52:14.328Z,1.60
2019-02-02T23:54:47.259Z,1.60
2019-02-02T23:57:20.404Z,1.50
2019-02-02T23:59:53.231Z,1.60
